Sunday, May 27, 2018, 5:38 AM EDT

KIPT, Williamsport-lycoming County

Location: Montoursville, PA, United States Lat: 41.25
Local Time: 5:38 AM EDT ( 9:38 GMT) Lon: -76.917
Time Zone: US/Eastern Elev: 528 ft

Show me the last for .
Show Decoded

2018-05-27 05:17 METAR KIPT 270917Z AUTO 28004KT 7SM SCT007 BKN060 OVC090 19/18 A2991 RMK AO2
                 RAE12 P0001 T01890183 =
2018-05-27 04:57 METAR KIPT 270857Z AUTO 00000KT 3SM RA BR FEW005 BKN028 OVC095 19/19 A2990 RMK
                 AO2 P0001 T01890189 =
2018-05-27 04:54 METAR KIPT 270854Z AUTO 06003KT 2SM RA BR FEW007 BKN030 OVC095 19/19 A2989 RMK
                 AO2 RAE09B26 SLP119 P0039 60062 T01890189 51002 =
2018-05-27 04:36 METAR KIPT 270836Z AUTO 00000KT 1 1/2SM +RA BR FEW026 SCT043 OVC055 19/18 A2990
                 RMK AO2 RAE09B26 P0004 T01890183 =
2018-05-27 03:54 METAR KIPT 270754Z AUTO 10003KT 9SM -RA SCT060 OVC085 19/18 A2989 RMK AO2 SLP118
                 P0005 T01940183 =
2018-05-27 02:54 METAR KIPT 270654Z AUTO 32005KT 4SM RA BR SCT055 BKN070 OVC090 19/18 A2990 RMK
                 AO2 SLP120 P0018 T01940183 =
2018-05-27 02:40 METAR KIPT 270640Z AUTO 27007KT 4SM -RA BR SCT049 BKN070 OVC090 19/18 A2990 RMK
                 AO2 P0017 T01940183 =
2018-05-27 02:31 METAR KIPT 270631Z AUTO 29008KT 2 1/2SM RA BR BKN049 OVC070 19/18 A2989 RMK AO2
                 P0014 T01940183 =
2018-05-27 01:54 METAR KIPT 270554Z AUTO 27010KT 9SM -RA BKN080 OVC095 21/18 A2989 RMK AO2 SLP116
                 P0000 60000 T02060183 10283 20200 53012 =
2018-05-27 00:54 METAR KIPT 270454Z AUTO 30004KT 10SM -RA FEW075 OVC110 21/18 A2987 RMK AO2 RAB35
                 SLP110 P0000 T02060178 403280133 =
2018-05-26 23:54 METAR KIPT 270354Z AUTO 35003KT 10SM OVC100 22/18 A2986 RMK AO2 SLP109 T02170178
                 =
2018-05-26 22:54 METAR KIPT 270254Z AUTO 00000KT 10SM BKN110 22/18 A2985 RMK AO2 SLP105 60000
                 T02220178 51017 =
2018-05-26 21:54 METAR KIPT 270154Z 25003KT 10SM OVC110 23/18 A2985 RMK AO2 RAE30 SLP104 P0000
                 T02280183 =
2018-05-26 20:54 METAR KIPT 270054Z 06003KT 10SM -RA SCT090 OVC110 27/17 A2983 RMK AO2 RAB27
                 SLP097 P0000 T02670167 =
2018-05-26 19:54 METAR KIPT 262354Z 00000KT 10SM CLR 28/16 A2980 RMK AO2 SLP089 T02830156 10328
                 20272 53007 =
2018-05-26 18:54 METAR KIPT 262254Z 00000KT 10SM CLR 29/16 A2978 RMK AO2 SLP082 T02890161 =
2018-05-26 17:54 METAR KIPT 262154Z 00000KT 10SM BKN060 30/16 A2978 RMK AO2 SLP080 T03000156 =
2018-05-26 16:54 METAR KIPT 262054Z 00000KT 10SM CLR 31/11 A2978 RMK AO2 SLP082 T03110111 55008 =
2018-05-26 15:54 METAR KIPT 261954Z VRB04KT 10SM FEW095 32/12 A2978 RMK AO2 SLP081 T03220117 =
2018-05-26 14:54 METAR KIPT 261854Z 26007KT 10SM SCT045 32/12 A2980 RMK AO2 SLP086 T03170117 =
2018-05-26 13:54 METAR KIPT 261754Z VRB04KT 10SM FEW070 31/13 A2981 RMK AO2 SLP090 T03060133
                 10306 20172 58014 =
2018-05-26 12:54 METAR KIPT 261654Z 24006KT 10SM FEW050 31/14 A2982 RMK AO2 SLP095 T03060139 =
2018-05-26 11:54 METAR KIPT 261554Z 28006KT 10SM CLR 28/16 A2984 RMK AO2 SLP100 T02830161 =
2018-05-26 10:54 METAR KIPT 261454Z 28005KT 10SM CLR 26/18 A2985 RMK AO2 SLP104 T02610178 58006 =
2018-05-26 09:54 METAR KIPT 261354Z 22005KT 10SM CLR 22/16 A2986 RMK AO2 SLP109 T02220156 =
2018-05-26 08:54 METAR KIPT 261254Z 00000KT 10SM CLR 19/14 A2987 RMK AO2 SLP111 T01940144 =
2018-05-26 07:54 METAR KIPT 261154Z 00000KT 10SM CLR 17/13 A2986 RMK AO2 SLP110 T01720133 10172
                 20133 51009 =
2018-05-26 06:54 METAR KIPT 261054Z 00000KT 10SM CLR 16/13 A2986 RMK AO2 SLP108 T01560128 =
2018-05-26 05:54 METAR KIPT 260954Z AUTO 00000KT 10SM CLR 14/12 A2985 RMK AO2 SLP103 T01390122 =

Support USWX by starting your Amazon purchase here.